Salou, Spain
Current Conditions -  °F | °C
As of 5:30 PM on Monday 24 Nov 2014 (Local Time) from LERS Reporting Station
Few Clouds Few Clouds  
Wind Chill: 66°   Ceiling: Unl
Heat Index: 66°   Visibility: 6mi
Dew Point: 61°   Wind: 3mph
Humidity: 83%   Direction: 100°E
Pressure: 30.03"   Gusts: NA
Location:  41.08°N, 1.14°E
Report Text: LERS 241630Z 10003KT 070V130 9999 FEW040 19/16 Q1017
Loading
Personal Weather Stations






























Interactive Weather Map New forecast layout! Learn more

10-Day Weather Forecast

Advertisements
Track Severe Weather on mobile